sensor_id;sensor_type;location;lat;lon;timestamp;P1;durP1;ratioP1;P2;durP2;ratioP2
30149;SDS011;16962;48.646;9.026;2023-04-25T00:18:05;7.10;;;4.82;;
30149;SDS011;16962;48.646;9.026;2023-04-25T00:25:10;5.15;;;4.28;;
30149;SDS011;16962;48.646;9.026;2023-04-25T00:37:40;7.88;;;4.88;;
30149;SDS011;16962;48.646;9.026;2023-04-25T00:40:32;6.87;;;4.13;;
30149;SDS011;16962;48.646;9.026;2023-04-25T00:43:38;9.63;;;5.57;;
30149;SDS011;16962;48.646;9.026;2023-04-25T00:47:45;6.07;;;4.60;;
30149;SDS011;16962;48.646;9.026;2023-04-25T00:59:30;8.07;;;4.85;;
30149;SDS011;16962;48.646;9.026;2023-04-25T01:02:40;7.75;;;5.30;;
30149;SDS011;16962;48.646;9.026;2023-04-25T01:05:29;8.30;;;5.80;;
30149;SDS011;16962;48.646;9.026;2023-04-25T01:08:43;7.53;;;5.22;;
30149;SDS011;16962;48.646;9.026;2023-04-25T01:20:15;7.65;;;4.80;;
30149;SDS011;16962;48.646;9.026;2023-04-25T01:27:11;8.30;;;4.93;;
30149;SDS011;16962;48.646;9.026;2023-04-25T01:30:33;10.35;;;5.03;;
30149;SDS011;16962;48.646;9.026;2023-04-25T01:33:33;6.22;;;4.88;;
30149;SDS011;16962;48.646;9.026;2023-04-25T01:37:07;6.90;;;3.80;;
30149;SDS011;16962;48.646;9.026;2023-04-25T01:57:43;10.23;;;4.70;;
30149;SDS011;16962;48.646;9.026;2023-04-25T02:05:37;6.93;;;4.90;;
30149;SDS011;16962;48.646;9.026;2023-04-25T02:09:13;11.02;;;5.95;;
30149;SDS011;16962;48.646;9.026;2023-04-25T02:16:08;5.93;;;3.67;;
30149;SDS011;16962;48.646;9.026;2023-04-25T02:52:43;8.73;;;4.30;;
30149;SDS011;16962;48.646;9.026;2023-04-25T02:56:48;6.55;;;4.47;;
30149;SDS011;16962;48.646;9.026;2023-04-25T03:27:21;5.88;;;3.97;;
30149;SDS011;16962;48.646;9.026;2023-04-25T03:31:07;6.75;;;4.05;;
30149;SDS011;16962;48.646;9.026;2023-04-25T03:34:14;6.53;;;3.67;;
30149;SDS011;16962;48.646;9.026;2023-04-25T03:58:56;10.52;;;5.10;;
30149;SDS011;16962;48.646;9.026;2023-04-25T04:18:13;11.80;;;5.45;;
30149;SDS011;16962;48.646;9.026;2023-04-25T04:29:32;14.70;;;6.75;;
30149;SDS011;16962;48.646;9.026;2023-04-25T04:33:25;10.68;;;5.75;;
30149;SDS011;16962;48.646;9.026;2023-04-25T04:36:30;12.40;;;6.93;;
30149;SDS011;16962;48.646;9.026;2023-04-25T04:39:26;16.75;;;7.30;;
30149;SDS011;16962;48.646;9.026;2023-04-25T04:42:24;15.80;;;8.00;;
30149;SDS011;16962;48.646;9.026;2023-04-25T04:45:21;12.00;;;8.15;;
30149;SDS011;16962;48.646;9.026;2023-04-25T04:48:11;13.00;;;7.22;;
30149;SDS011;16962;48.646;9.026;2023-04-25T04:51:04;10.20;;;7.28;;
30149;SDS011;16962;48.646;9.026;2023-04-25T04:53:51;12.88;;;7.20;;
30149;SDS011;16962;48.646;9.026;2023-04-25T04:56:57;8.52;;;6.25;;
30149;SDS011;16962;48.646;9.026;2023-04-25T04:59:49;10.35;;;7.13;;
30149;SDS011;16962;48.646;9.026;2023-04-25T05:02:37;13.18;;;6.53;;
30149;SDS011;16962;48.646;9.026;2023-04-25T05:05:25;15.82;;;6.43;;
30149;SDS011;16962;48.646;9.026;2023-04-25T05:08:13;16.25;;;6.90;;
30149;SDS011;16962;48.646;9.026;2023-04-25T05:11:00;9.30;;;6.80;;
30149;SDS011;16962;48.646;9.026;2023-04-25T05:13:48;8.88;;;6.20;;
30149;SDS011;16962;48.646;9.026;2023-04-25T05:16:36;13.25;;;7.70;;
30149;SDS011;16962;48.646;9.026;2023-04-25T05:19:29;15.25;;;6.63;;
30149;SDS011;16962;48.646;9.026;2023-04-25T05:22:21;17.27;;;7.68;;
30149;SDS011;16962;48.646;9.026;2023-04-25T05:25:09;11.40;;;7.47;;
30149;SDS011;16962;48.646;9.026;2023-04-25T05:28:46;15.63;;;7.05;;
30149;SDS011;16962;48.646;9.026;2023-04-25T05:32:02;11.13;;;7.03;;
30149;SDS011;16962;48.646;9.026;2023-04-25T05:34:56;12.15;;;7.13;;
30149;SDS011;16962;48.646;9.026;2023-04-25T05:37:43;12.70;;;7.22;;
30149;SDS011;16962;48.646;9.026;2023-04-25T05:40:36;12.60;;;6.25;;
30149;SDS011;16962;48.646;9.026;2023-04-25T05:43:49;15.55;;;7.15;;
30149;SDS011;16962;48.646;9.026;2023-04-25T05:47:40;12.43;;;6.82;;
30149;SDS011;16962;48.646;9.026;2023-04-25T06:29:33;6.75;;;4.30;;
30149;SDS011;16962;48.646;9.026;2023-04-25T06:32:23;6.22;;;4.25;;
30149;SDS011;16962;48.646;9.026;2023-04-25T06:35:19;7.80;;;4.20;;
30149;SDS011;16962;48.646;9.026;2023-04-25T06:38:08;7.72;;;4.78;;
30149;SDS011;16962;48.646;9.026;2023-04-25T06:40:55;7.00;;;4.30;;
30149;SDS011;16962;48.646;9.026;2023-04-25T06:43:46;12.65;;;5.18;;
30149;SDS011;16962;48.646;9.026;2023-04-25T06:46:34;6.22;;;4.60;;
30149;SDS011;16962;48.646;9.026;2023-04-25T06:49:30;11.40;;;5.10;;
30149;SDS011;16962;48.646;9.026;2023-04-25T06:52:22;8.55;;;4.88;;
30149;SDS011;16962;48.646;9.026;2023-04-25T06:55:17;12.30;;;5.50;;
30149;SDS011;16962;48.646;9.026;2023-04-25T07:06:33;15.35;;;5.75;;
30149;SDS011;16962;48.646;9.026;2023-04-25T07:10:10;12.10;;;7.25;;
30149;SDS011;16962;48.646;9.026;2023-04-25T07:38:55;13.45;;;7.35;;
30149;SDS011;16962;48.646;9.026;2023-04-25T07:41:49;10.85;;;7.70;;
30149;SDS011;16962;48.646;9.026;2023-04-25T07:56:24;16.98;;;8.63;;
30149;SDS011;16962;48.646;9.026;2023-04-25T07:59:37;14.05;;;8.10;;
30149;SDS011;16962;48.646;9.026;2023-04-25T08:02:36;11.68;;;8.88;;
30149;SDS011;16962;48.646;9.026;2023-04-25T08:05:34;13.30;;;8.23;;
30149;SDS011;16962;48.646;9.026;2023-04-25T08:08:41;13.98;;;7.30;;
30149;SDS011;16962;48.646;9.026;2023-04-25T08:11:39;14.18;;;7.82;;
30149;SDS011;16962;48.646;9.026;2023-04-25T08:43:01;16.05;;;7.57;;
30149;SDS011;16962;48.646;9.026;2023-04-25T08:46:09;11.85;;;7.82;;
30149;SDS011;16962;48.646;9.026;2023-04-25T08:49:07;14.02;;;9.07;;
30149;SDS011;16962;48.646;9.026;2023-04-25T08:55:54;13.10;;;8.63;;
30149;SDS011;16962;48.646;9.026;2023-04-25T09:11:09;15.60;;;10.07;;
30149;SDS011;16962;48.646;9.026;2023-04-25T09:18:30;10.35;;;8.52;;
30149;SDS011;16962;48.646;9.026;2023-04-25T09:24:41;8.13;;;6.82;;
30149;SDS011;16962;48.646;9.026;2023-04-25T09:27:39;9.38;;;7.03;;
30149;SDS011;16962;48.646;9.026;2023-04-25T09:35:38;4.93;;;4.43;;
30149;SDS011;16962;48.646;9.026;2023-04-25T09:38:30;8.18;;;6.15;;
30149;SDS011;16962;48.646;9.026;2023-04-25T09:41:24;9.88;;;5.57;;
30149;SDS011;16962;48.646;9.026;2023-04-25T09:44:15;6.47;;;5.38;;
30149;SDS011;16962;48.646;9.026;2023-04-25T09:47:12;4.78;;;3.75;;
30149;SDS011;16962;48.646;9.026;2023-04-25T09:50:05;6.35;;;3.63;;
30149;SDS011;16962;48.646;9.026;2023-04-25T09:53:04;4.65;;;3.05;;
30149;SDS011;16962;48.646;9.026;2023-04-25T09:55:58;3.60;;;3.03;;
30149;SDS011;16962;48.646;9.026;2023-04-25T09:58:47;4.57;;;2.97;;
30149;SDS011;16962;48.646;9.026;2023-04-25T10:01:39;2.13;;;2.00;;
30149;SDS011;16962;48.646;9.026;2023-04-25T10:04:28;2.78;;;2.50;;
30149;SDS011;16962;48.646;9.026;2023-04-25T10:07:23;3.15;;;2.42;;
30149;SDS011;16962;48.646;9.026;2023-04-25T10:10:13;2.53;;;2.33;;
30149;SDS011;16962;48.646;9.026;2023-04-25T10:13:04;2.28;;;2.08;;
30149;SDS011;16962;48.646;9.026;2023-04-25T10:15:53;2.20;;;2.00;;
30149;SDS011;16962;48.646;9.026;2023-04-25T10:18:41;4.60;;;2.50;;
30149;SDS011;16962;48.646;9.026;2023-04-25T10:21:29;2.55;;;2.35;;
30149;SDS011;16962;48.646;9.026;2023-04-25T10:24:46;3.10;;;2.42;;
30149;SDS011;16962;48.646;9.026;2023-04-25T10:27:54;3.05;;;1.60;;
30149;SDS011;16962;48.646;9.026;2023-04-25T10:30:59;2.20;;;1.88;;
30149;SDS011;16962;48.646;9.026;2023-04-25T10:38:19;1.85;;;1.73;;
30149;SDS011;16962;48.646;9.026;2023-04-25T10:41:24;2.78;;;1.45;;
30149;SDS011;16962;48.646;9.026;2023-04-25T10:44:36;1.92;;;1.60;;
30149;SDS011;16962;48.646;9.026;2023-04-25T10:48:29;2.28;;;1.85;;
30149;SDS011;16962;48.646;9.026;2023-04-25T10:51:18;2.33;;;1.83;;
30149;SDS011;16962;48.646;9.026;2023-04-25T10:54:31;1.40;;;1.05;;
30149;SDS011;16962;48.646;9.026;2023-04-25T11:00:35;1.38;;;1.27;;
30149;SDS011;16962;48.646;9.026;2023-04-25T11:03:42;1.60;;;1.50;;
30149;SDS011;16962;48.646;9.026;2023-04-25T11:06:52;2.38;;;1.90;;
30149;SDS011;16962;48.646;9.026;2023-04-25T11:10:06;1.60;;;1.45;;
30149;SDS011;16962;48.646;9.026;2023-04-25T11:13:24;1.65;;;1.25;;
30149;SDS011;16962;48.646;9.026;2023-04-25T11:16:28;1.40;;;1.30;;
30149;SDS011;16962;48.646;9.026;2023-04-25T11:19:19;1.58;;;1.48;;
30149;SDS011;16962;48.646;9.026;2023-04-25T11:22:14;1.20;;;1.10;;
30149;SDS011;16962;48.646;9.026;2023-04-25T11:29:28;1.77;;;1.10;;
30149;SDS011;16962;48.646;9.026;2023-04-25T11:32:17;1.58;;;1.40;;
30149;SDS011;16962;48.646;9.026;2023-04-25T11:35:08;1.50;;;1.40;;
30149;SDS011;16962;48.646;9.026;2023-04-25T11:37:58;1.30;;;1.20;;
30149;SDS011;16962;48.646;9.026;2023-04-25T11:40:49;1.20;;;1.10;;
30149;SDS011;16962;48.646;9.026;2023-04-25T11:43:47;5.32;;;1.63;;
30149;SDS011;16962;48.646;9.026;2023-04-25T12:29:15;4.80;;;3.88;;
30149;SDS011;16962;48.646;9.026;2023-04-25T13:30:38;5.88;;;4.43;;
30149;SDS011;16962;48.646;9.026;2023-04-25T13:37:58;8.15;;;5.15;;
30149;SDS011;16962;48.646;9.026;2023-04-25T14:27:01;6.90;;;5.40;;
30149;SDS011;16962;48.646;9.026;2023-04-25T14:29:51;7.38;;;5.40;;
30149;SDS011;16962;48.646;9.026;2023-04-25T14:32:39;8.73;;;5.35;;
30149;SDS011;16962;48.646;9.026;2023-04-25T14:35:49;6.78;;;5.13;;
30149;SDS011;16962;48.646;9.026;2023-04-25T14:43:11;7.25;;;5.55;;
30149;SDS011;16962;48.646;9.026;2023-04-25T14:46:30;6.20;;;4.80;;
30149;SDS011;16962;48.646;9.026;2023-04-25T15:01:11;4.05;;;3.42;;
30149;SDS011;16962;48.646;9.026;2023-04-25T15:04:07;4.10;;;2.83;;
30149;SDS011;16962;48.646;9.026;2023-04-25T15:06:55;3.30;;;2.95;;
30149;SDS011;16962;48.646;9.026;2023-04-25T15:21:02;3.70;;;2.20;;
30149;SDS011;16962;48.646;9.026;2023-04-25T15:23:54;2.65;;;2.42;;
30149;SDS011;16962;48.646;9.026;2023-04-25T15:26:42;2.92;;;2.35;;
30149;SDS011;16962;48.646;9.026;2023-04-25T15:46:28;1.60;;;1.50;;
30149;SDS011;16962;48.646;9.026;2023-04-25T15:53:41;1.70;;;1.60;;
30149;SDS011;16962;48.646;9.026;2023-04-25T15:56:28;2.40;;;1.58;;
30149;SDS011;16962;48.646;9.026;2023-04-25T16:02:59;2.15;;;1.85;;
30149;SDS011;16962;48.646;9.026;2023-04-25T16:06:04;4.40;;;1.98;;
30149;SDS011;16962;48.646;9.026;2023-04-25T16:08:54;2.90;;;2.60;;
30149;SDS011;16962;48.646;9.026;2023-04-25T16:11:45;4.97;;;2.63;;
30149;SDS011;16962;48.646;9.026;2023-04-25T16:14:41;2.88;;;2.40;;
30149;SDS011;16962;48.646;9.026;2023-04-25T16:17:31;3.70;;;2.67;;
30149;SDS011;16962;48.646;9.026;2023-04-25T16:20:34;3.97;;;3.00;;
30149;SDS011;16962;48.646;9.026;2023-04-25T16:23:24;3.95;;;2.95;;
30149;SDS011;16962;48.646;9.026;2023-04-25T16:26:20;7.88;;;3.72;;
30149;SDS011;16962;48.646;9.026;2023-04-25T16:29:11;4.75;;;3.00;;
30149;SDS011;16962;48.646;9.026;2023-04-25T16:32:08;6.15;;;3.30;;
30149;SDS011;16962;48.646;9.026;2023-04-25T16:35:02;5.57;;;3.75;;
30149;SDS011;16962;48.646;9.026;2023-04-25T16:38:08;5.75;;;3.80;;
30149;SDS011;16962;48.646;9.026;2023-04-25T16:45:11;4.80;;;3.72;;
30149;SDS011;16962;48.646;9.026;2023-04-25T16:48:25;11.38;;;3.65;;
30149;SDS011;16962;48.646;9.026;2023-04-25T17:04:21;5.90;;;3.97;;
30149;SDS011;16962;48.646;9.026;2023-04-25T17:08:05;8.15;;;5.35;;
30149;SDS011;16962;48.646;9.026;2023-04-25T17:14:32;9.30;;;4.93;;
30149;SDS011;16962;48.646;9.026;2023-04-25T17:18:28;7.30;;;4.97;;
30149;SDS011;16962;48.646;9.026;2023-04-25T17:30:19;7.78;;;5.20;;
30149;SDS011;16962;48.646;9.026;2023-04-25T17:33:21;9.88;;;5.57;;
30149;SDS011;16962;48.646;9.026;2023-04-25T17:36:40;7.93;;;5.88;;
30149;SDS011;16962;48.646;9.026;2023-04-25T17:40:20;9.32;;;5.75;;
30149;SDS011;16962;48.646;9.026;2023-04-25T17:46:54;9.57;;;6.60;;
30149;SDS011;16962;48.646;9.026;2023-04-25T17:50:04;8.73;;;5.97;;
30149;SDS011;16962;48.646;9.026;2023-04-25T17:58:01;9.77;;;5.72;;
30149;SDS011;16962;48.646;9.026;2023-04-25T18:01:45;8.63;;;6.25;;
30149;SDS011;16962;48.646;9.026;2023-04-25T18:04:36;7.88;;;5.80;;
30149;SDS011;16962;48.646;9.026;2023-04-25T18:08:00;12.70;;;6.40;;
30149;SDS011;16962;48.646;9.026;2023-04-25T18:10:48;9.45;;;5.95;;
30149;SDS011;16962;48.646;9.026;2023-04-25T18:13:49;10.10;;;6.20;;
30149;SDS011;16962;48.646;9.026;2023-04-25T18:16:36;11.55;;;6.43;;
30149;SDS011;16962;48.646;9.026;2023-04-25T18:19:24;10.07;;;7.05;;
30149;SDS011;16962;48.646;9.026;2023-04-25T18:22:15;10.18;;;6.57;;
30149;SDS011;16962;48.646;9.026;2023-04-25T18:25:03;9.63;;;6.65;;
30149;SDS011;16962;48.646;9.026;2023-04-25T18:28:09;11.00;;;7.15;;
30149;SDS011;16962;48.646;9.026;2023-04-25T18:31:18;10.02;;;6.57;;
30149;SDS011;16962;48.646;9.026;2023-04-25T18:34:18;11.25;;;7.28;;
30149;SDS011;16962;48.646;9.026;2023-04-25T18:37:07;14.35;;;6.63;;
30149;SDS011;16962;48.646;9.026;2023-04-25T18:40:00;12.25;;;7.60;;
30149;SDS011;16962;48.646;9.026;2023-04-25T18:43:07;11.77;;;7.65;;
30149;SDS011;16962;48.646;9.026;2023-04-25T18:45:57;9.02;;;6.15;;
30149;SDS011;16962;48.646;9.026;2023-04-25T18:48:45;9.48;;;6.32;;
30149;SDS011;16962;48.646;9.026;2023-04-25T18:51:33;7.72;;;5.68;;
30149;SDS011;16962;48.646;9.026;2023-04-25T18:54:23;8.18;;;6.32;;
30149;SDS011;16962;48.646;9.026;2023-04-25T18:57:11;11.02;;;6.05;;
30149;SDS011;16962;48.646;9.026;2023-04-25T19:00:08;7.97;;;5.97;;
30149;SDS011;16962;48.646;9.026;2023-04-25T19:02:57;7.28;;;5.65;;
30149;SDS011;16962;48.646;9.026;2023-04-25T19:05:55;10.80;;;6.68;;
30149;SDS011;16962;48.646;9.026;2023-04-25T19:11:54;10.23;;;7.22;;
30149;SDS011;16962;48.646;9.026;2023-04-25T19:15:50;8.48;;;6.50;;
30149;SDS011;16962;48.646;9.026;2023-04-25T19:18:48;10.13;;;6.97;;
30149;SDS011;16962;48.646;9.026;2023-04-25T19:21:40;11.90;;;7.00;;
30149;SDS011;16962;48.646;9.026;2023-04-25T19:24:39;11.27;;;8.25;;
30149;SDS011;16962;48.646;9.026;2023-04-25T19:27:46;12.98;;;7.78;;
30149;SDS011;16962;48.646;9.026;2023-04-25T19:31:24;11.50;;;7.35;;
30149;SDS011;16962;48.646;9.026;2023-04-25T19:35:19;14.82;;;8.07;;
30149;SDS011;16962;48.646;9.026;2023-04-25T19:38:22;10.85;;;7.05;;
30149;SDS011;16962;48.646;9.026;2023-04-25T19:41:42;10.40;;;7.20;;
30149;SDS011;16962;48.646;9.026;2023-04-25T19:49:06;9.82;;;7.35;;
30149;SDS011;16962;48.646;9.026;2023-04-25T19:51:57;13.07;;;7.78;;
30149;SDS011;16962;48.646;9.026;2023-04-25T19:55:06;10.07;;;7.30;;
30149;SDS011;16962;48.646;9.026;2023-04-25T19:58:19;12.40;;;8.30;;
30149;SDS011;16962;48.646;9.026;2023-04-25T20:12:45;12.73;;;8.82;;
30149;SDS011;16962;48.646;9.026;2023-04-25T20:28:40;11.35;;;7.95;;
30149;SDS011;16962;48.646;9.026;2023-04-25T20:31:48;16.27;;;10.70;;
30149;SDS011;16962;48.646;9.026;2023-04-25T20:39:10;11.20;;;6.78;;
30149;SDS011;16962;48.646;9.026;2023-04-25T20:51:00;7.97;;;5.47;;
30149;SDS011;16962;48.646;9.026;2023-04-25T20:58:20;8.02;;;6.43;;
30149;SDS011;16962;48.646;9.026;2023-04-25T21:34:48;14.00;;;9.63;;
30149;SDS011;16962;48.646;9.026;2023-04-25T21:38:59;15.73;;;9.77;;
30149;SDS011;16962;48.646;9.026;2023-04-25T21:51:05;14.48;;;10.63;;
30149;SDS011;16962;48.646;9.026;2023-04-25T21:58:01;17.35;;;9.65;;
30149;SDS011;16962;48.646;9.026;2023-04-25T22:01:42;14.23;;;10.15;;
30149;SDS011;16962;48.646;9.026;2023-04-25T22:04:36;18.27;;;11.00;;
30149;SDS011;16962;48.646;9.026;2023-04-25T22:07:29;19.15;;;10.25;;
30149;SDS011;16962;48.646;9.026;2023-04-25T22:10:20;18.40;;;11.02;;
30149;SDS011;16962;48.646;9.026;2023-04-25T22:13:17;16.83;;;10.60;;
30149;SDS011;16962;48.646;9.026;2023-04-25T22:16:04;15.02;;;10.35;;
30149;SDS011;16962;48.646;9.026;2023-04-25T22:19:11;17.77;;;11.55;;
30149;SDS011;16962;48.646;9.026;2023-04-25T22:22:00;17.00;;;11.25;;
30149;SDS011;16962;48.646;9.026;2023-04-25T22:24:52;16.50;;;11.05;;
30149;SDS011;16962;48.646;9.026;2023-04-25T22:27:40;18.73;;;11.40;;
30149;SDS011;16962;48.646;9.026;2023-04-25T22:30:38;19.50;;;10.30;;
30149;SDS011;16962;48.646;9.026;2023-04-25T22:33:26;15.65;;;9.38;;
30149;SDS011;16962;48.646;9.026;2023-04-25T22:36:13;15.00;;;10.52;;
30149;SDS011;16962;48.646;9.026;2023-04-25T22:39:01;14.52;;;10.50;;
30149;SDS011;16962;48.646;9.026;2023-04-25T22:41:48;17.60;;;10.55;;
30149;SDS011;16962;48.646;9.026;2023-04-25T22:44:36;18.98;;;11.93;;
30149;SDS011;16962;48.646;9.026;2023-04-25T22:47:26;19.58;;;12.20;;
30149;SDS011;16962;48.646;9.026;2023-04-25T22:50:14;20.42;;;11.57;;
30149;SDS011;16962;48.646;9.026;2023-04-25T22:53:02;18.15;;;11.55;;
30149;SDS011;16962;48.646;9.026;2023-04-25T22:55:54;16.55;;;11.88;;
30149;SDS011;16962;48.646;9.026;2023-04-25T22:58:44;14.55;;;11.07;;
30149;SDS011;16962;48.646;9.026;2023-04-25T23:01:32;17.67;;;11.05;;
30149;SDS011;16962;48.646;9.026;2023-04-25T23:04:19;15.82;;;12.00;;
30149;SDS011;16962;48.646;9.026;2023-04-25T23:07:10;19.10;;;11.80;;
30149;SDS011;16962;48.646;9.026;2023-04-25T23:09:59;18.98;;;12.40;;
30149;SDS011;16962;48.646;9.026;2023-04-25T23:12:46;17.23;;;11.20;;
30149;SDS011;16962;48.646;9.026;2023-04-25T23:15:43;17.52;;;11.73;;
30149;SDS011;16962;48.646;9.026;2023-04-25T23:18:35;18.63;;;11.77;;
30149;SDS011;16962;48.646;9.026;2023-04-25T23:21:25;15.00;;;11.13;;
30149;SDS011;16962;48.646;9.026;2023-04-25T23:24:12;18.55;;;11.60;;
30149;SDS011;16962;48.646;9.026;2023-04-25T23:26:59;22.05;;;12.23;;
30149;SDS011;16962;48.646;9.026;2023-04-25T23:29:51;19.50;;;12.25;;
30149;SDS011;16962;48.646;9.026;2023-04-25T23:32:42;23.02;;;12.43;;
30149;SDS011;16962;48.646;9.026;2023-04-25T23:35:29;20.70;;;12.05;;
30149;SDS011;16962;48.646;9.026;2023-04-25T23:38:20;18.63;;;12.57;;
30149;SDS011;16962;48.646;9.026;2023-04-25T23:41:10;22.98;;;13.65;;
30149;SDS011;16962;48.646;9.026;2023-04-25T23:43:57;21.25;;;12.70;;
30149;SDS011;16962;48.646;9.026;2023-04-25T23:46:44;21.50;;;12.82;;
30149;SDS011;16962;48.646;9.026;2023-04-25T23:49:32;22.48;;;13.10;;
30149;SDS011;16962;48.646;9.026;2023-04-25T23:52:19;19.42;;;13.52;;
30149;SDS011;16962;48.646;9.026;2023-04-25T23:55:08;20.63;;;12.90;;
30149;SDS011;16962;48.646;9.026;2023-04-25T23:57:56;21.67;;;11.75;;
